createdAt,value
2018-04-08T00:00:27.772Z,5.00
2018-04-08T00:02:55.438Z,4.30
2018-04-08T00:05:25.941Z,4.50
2018-04-08T00:08:17.018Z,4.57
2018-04-08T00:10:44.619Z,5.20
2018-04-08T00:13:12.274Z,6.83
2018-04-08T00:15:39.938Z,4.73
2018-04-08T00:18:07.449Z,3.50
2018-04-08T00:20:34.948Z,5.30
2018-04-08T00:23:02.577Z,4.00
2018-04-08T00:25:30.380Z,3.93
2018-04-08T00:27:58.043Z,3.50
2018-04-08T00:30:25.717Z,4.87
2018-04-08T00:32:53.214Z,6.60
2018-04-08T00:35:20.842Z,4.70
2018-04-08T00:37:48.749Z,4.70
2018-04-08T00:40:16.538Z,4.20
2018-04-08T00:42:44.042Z,4.40
2018-04-08T00:45:11.591Z,4.30
2018-04-08T00:47:39.151Z,3.80
2018-04-08T00:50:06.770Z,4.20
2018-04-08T00:52:34.497Z,5.03
2018-04-08T00:55:02.116Z,6.83
2018-04-08T00:57:29.782Z,5.03
2018-04-08T00:59:57.322Z,5.57
2018-04-08T01:02:24.889Z,4.77
2018-04-08T01:04:52.441Z,5.00
2018-04-08T01:07:20.202Z,4.40
2018-04-08T01:09:47.849Z,5.57
2018-04-08T01:12:25.629Z,4.70
2018-04-08T01:14:53.209Z,4.10
2018-04-08T01:17:20.717Z,5.00
2018-04-08T01:19:48.334Z,6.70
2018-04-08T01:22:15.843Z,4.00
2018-04-08T01:24:43.396Z,3.50
2018-04-08T01:27:10.898Z,4.50
2018-04-08T01:29:39.002Z,5.57
2018-04-08T01:32:06.637Z,3.90
2018-04-08T01:34:34.326Z,4.03
2018-04-08T01:37:01.964Z,5.53
2018-04-08T01:39:29.501Z,3.97
2018-04-08T01:41:57.446Z,5.00
2018-04-08T01:44:25.006Z,4.53
2018-04-08T01:46:52.507Z,4.37
2018-04-08T01:49:20.190Z,3.53
2018-04-08T01:51:47.893Z,6.67
2018-04-08T01:54:15.400Z,6.20
2018-04-08T01:56:43.017Z,4.67
2018-04-08T01:59:10.999Z,4.20
2018-04-08T02:01:38.980Z,5.40
2018-04-08T02:04:06.610Z,5.20
2018-04-08T02:06:34.298Z,3.97
2018-04-08T02:09:01.805Z,5.13
2018-04-08T02:11:29.402Z,4.40
2018-04-08T02:13:57.270Z,4.07
2018-04-08T02:16:25.241Z,4.60
2018-04-08T02:18:53.183Z,7.70
2018-04-08T02:21:20.839Z,4.10
2018-04-08T02:23:48.415Z,3.70
2018-04-08T02:26:15.929Z,4.60
2018-04-08T02:28:43.433Z,3.80
2018-04-08T02:31:10.937Z,6.00
2018-04-08T02:33:38.651Z,5.37
2018-04-08T02:36:08.163Z,4.93
2018-04-08T02:38:35.856Z,8.30
2018-04-08T02:41:03.517Z,3.93
2018-04-08T02:43:31.157Z,4.60
2018-04-08T02:45:59.207Z,3.83
2018-04-08T02:48:26.799Z,5.20
2018-04-08T02:50:54.743Z,5.23
2018-04-08T02:53:22.263Z,5.10
2018-04-08T02:55:49.819Z,5.63
2018-04-08T02:58:17.749Z,7.37
2018-04-08T03:00:45.998Z,12.67
2018-04-08T03:03:13.655Z,4.40
2018-04-08T03:05:41.207Z,4.00
2018-04-08T03:08:14.304Z,5.83
2018-04-08T03:10:41.811Z,4.73
2018-04-08T03:13:09.422Z,6.53
2018-04-08T03:15:36.998Z,4.23
2018-04-08T03:18:04.958Z,4.83
2018-04-08T03:20:32.606Z,5.80
2018-04-08T03:23:00.106Z,4.30
2018-04-08T03:25:27.643Z,4.30
2018-04-08T03:27:55.587Z,6.03
2018-04-08T03:30:23.323Z,4.63
2018-04-08T03:32:51.011Z,4.33
2018-04-08T03:35:18.771Z,8.03
2018-04-08T03:37:46.433Z,4.30
2018-04-08T03:40:14.102Z,4.10
2018-04-08T03:42:41.606Z,4.57
2018-04-08T03:45:09.278Z,5.43
2018-04-08T03:47:36.870Z,4.40
2018-04-08T03:50:04.404Z,4.33
2018-04-08T03:52:32.194Z,5.80
2018-04-08T03:54:59.693Z,4.20
2018-04-08T03:57:27.307Z,4.10
2018-04-08T03:59:54.813Z,3.60
2018-04-08T04:02:22.319Z,5.13
2018-04-08T04:04:49.889Z,5.00
2018-04-08T04:07:17.491Z,4.70
2018-04-08T04:09:44.989Z,5.67
2018-04-08T04:12:12.492Z,3.83
2018-04-08T04:14:40.157Z,3.77
2018-04-08T04:17:07.785Z,4.27
2018-04-08T04:19:46.990Z,4.93
2018-04-08T04:22:26.470Z,6.40
2018-04-08T04:25:01.455Z,4.20
2018-04-08T04:27:29.147Z,4.50
2018-04-08T04:29:56.758Z,4.00
2018-04-08T04:32:24.287Z,3.87
2018-04-08T04:34:51.920Z,7.33
2018-04-08T04:37:19.584Z,5.13
2018-04-08T04:39:47.208Z,4.67
2018-04-08T04:42:14.710Z,5.07
2018-04-08T04:44:42.627Z,3.70
2018-04-08T04:47:10.237Z,4.00
2018-04-08T04:49:37.894Z,4.07
2018-04-08T04:52:05.550Z,4.10
2018-04-08T04:54:33.057Z,3.90
2018-04-08T04:57:00.662Z,4.50
2018-04-08T04:59:28.338Z,4.10
2018-04-08T05:01:55.886Z,5.10
2018-04-08T05:04:23.512Z,4.20
2018-04-08T05:06:51.111Z,10.90
2018-04-08T05:09:18.615Z,4.50
2018-04-08T05:11:46.114Z,3.40
2018-04-08T05:14:13.673Z,4.03
2018-04-08T05:16:41.177Z,3.50
2018-04-08T05:19:08.781Z,4.87
2018-04-08T05:21:36.277Z,4.90
2018-04-08T05:24:04.218Z,3.73
2018-04-08T05:26:32.181Z,3.90
2018-04-08T05:28:59.698Z,5.60
2018-04-08T05:31:27.301Z,3.70
2018-04-08T05:33:54.798Z,4.13
2018-04-08T05:36:22.418Z,3.70
2018-04-08T05:38:49.971Z,3.90
2018-04-08T05:41:17.539Z,4.80
2018-04-08T05:43:45.039Z,4.13
2018-04-08T05:46:12.655Z,3.80
2018-04-08T05:48:40.150Z,4.27
2018-04-08T05:51:07.771Z,4.03
2018-04-08T05:53:35.271Z,5.07
2018-04-08T05:56:02.885Z,5.00
2018-04-08T05:58:30.388Z,3.93
2018-04-08T06:00:58.003Z,4.20
2018-04-08T06:03:25.672Z,4.90
2018-04-08T06:05:56.062Z,3.70
2018-04-08T06:08:23.853Z,5.30
2018-04-08T06:10:51.519Z,5.00
2018-04-08T06:13:19.173Z,5.53
2018-04-08T06:15:46.833Z,7.40
2018-04-08T06:18:14.502Z,4.53
2018-04-08T06:20:43.004Z,4.53
2018-04-08T06:23:10.682Z,4.20
2018-04-08T06:25:38.222Z,4.10
2018-04-08T06:28:06.136Z,3.80
2018-04-08T06:30:33.671Z,3.33
2018-04-08T06:33:01.285Z,4.03
2018-04-08T06:35:28.793Z,5.40
2018-04-08T06:37:56.687Z,3.83
2018-04-08T06:40:24.259Z,4.70
2018-04-08T06:42:51.921Z,4.47
2018-04-08T06:45:19.582Z,3.20
2018-04-08T06:47:47.125Z,3.10
2018-04-08T06:50:14.689Z,3.10
2018-04-08T06:52:42.194Z,4.40
2018-04-08T06:55:09.809Z,3.33
2018-04-08T06:57:37.470Z,3.03
2018-04-08T07:00:04.971Z,2.90
2018-04-08T07:02:32.591Z,3.60
2018-04-08T07:05:00.099Z,3.00
2018-04-08T07:07:27.604Z,2.70
2018-04-08T07:09:55.110Z,5.67
2018-04-08T07:12:22.624Z,2.90
2018-04-08T07:14:50.306Z,2.43
2018-04-08T07:17:17.834Z,3.40
2018-04-08T07:19:45.598Z,2.80
2018-04-08T07:22:14.278Z,2.90
2018-04-08T07:24:41.965Z,2.60
2018-04-08T07:27:09.507Z,3.70
2018-04-08T07:29:37.064Z,2.90
2018-04-08T07:32:04.576Z,3.00
2018-04-08T07:34:32.120Z,2.70
2018-04-08T07:36:59.654Z,2.67
2018-04-08T07:39:27.297Z,2.97
2018-04-08T07:41:54.804Z,2.93
2018-04-08T07:44:31.774Z,2.53
2018-04-08T07:46:59.326Z,2.40
2018-04-08T07:49:32.282Z,2.70
2018-04-08T07:51:59.967Z,4.17
2018-04-08T07:54:27.598Z,3.47
2018-04-08T07:56:55.467Z,2.57
2018-04-08T07:59:22.978Z,2.97
2018-04-08T08:01:50.600Z,4.20
2018-04-08T08:04:18.247Z,2.20
2018-04-08T08:06:45.947Z,2.90
2018-04-08T08:09:13.591Z,2.33
2018-04-08T08:11:41.606Z,2.50
2018-04-08T08:14:09.318Z,2.33
2018-04-08T08:16:36.831Z,2.90
2018-04-08T08:19:04.463Z,2.67
2018-04-08T08:21:31.967Z,2.83
2018-04-08T08:23:59.530Z,1.93
2018-04-08T08:26:27.044Z,2.00
2018-04-08T08:28:54.657Z,2.27
2018-04-08T08:31:22.318Z,2.50
2018-04-08T08:33:49.858Z,2.07
2018-04-08T08:36:17.450Z,2.80
2018-04-08T08:38:45.082Z,2.03
2018-04-08T08:41:12.630Z,2.40
2018-04-08T08:43:40.264Z,2.53
2018-04-08T08:46:07.866Z,2.07
2018-04-08T08:48:35.370Z,2.43
2018-04-08T08:51:03.051Z,2.37
2018-04-08T08:53:30.647Z,2.20
2018-04-08T08:55:58.171Z,2.40
2018-04-08T08:58:25.767Z,2.53
2018-04-08T09:00:53.290Z,2.50
2018-04-08T09:03:20.878Z,1.97
2018-04-08T09:05:48.446Z,2.30
2018-04-08T09:08:15.995Z,2.27
2018-04-08T09:10:43.708Z,1.87
2018-04-08T09:13:11.219Z,2.40
2018-04-08T09:15:38.719Z,2.40
2018-04-08T09:18:06.265Z,2.80
2018-04-08T09:20:50.736Z,2.33
2018-04-08T09:23:35.974Z,1.60
2018-04-08T09:26:03.651Z,2.43
2018-04-08T09:28:31.559Z,1.73
2018-04-08T09:30:59.201Z,1.77
2018-04-08T09:33:26.718Z,2.30
2018-04-08T09:35:54.614Z,1.90
2018-04-08T09:38:22.334Z,2.20
2018-04-08T09:40:49.899Z,2.03
2018-04-08T09:43:17.952Z,1.90
2018-04-08T09:45:45.786Z,2.03
2018-04-08T09:48:13.600Z,2.40
2018-04-08T09:50:44.830Z,2.20
2018-04-08T09:53:12.347Z,2.40
2018-04-08T09:55:40.126Z,2.03
2018-04-08T09:58:14.510Z,1.93
2018-04-08T10:00:58.819Z,2.00
2018-04-08T10:03:27.193Z,2.43
2018-04-08T10:05:54.714Z,2.37
2018-04-08T10:08:22.233Z,2.00
2018-04-08T10:10:50.191Z,3.10
2018-04-08T10:13:17.768Z,2.30
2018-04-08T10:15:45.674Z,2.43
2018-04-08T10:18:13.207Z,2.00
2018-04-08T10:20:41.044Z,2.77
2018-04-08T10:23:09.133Z,2.13
2018-04-08T10:25:36.630Z,2.13
2018-04-08T10:28:05.036Z,2.83
2018-04-08T10:30:32.703Z,2.53
2018-04-08T10:33:00.354Z,2.13
2018-04-08T10:35:28.087Z,2.53
2018-04-08T10:37:55.931Z,2.10
2018-04-08T10:40:23.466Z,1.83
2018-04-08T10:42:51.616Z,1.97
2018-04-08T10:45:19.278Z,2.27
2018-04-08T10:47:46.935Z,2.43
2018-04-08T10:50:14.506Z,2.10
2018-04-08T10:52:42.059Z,2.57
2018-04-08T10:55:09.715Z,1.93
2018-04-08T10:57:37.211Z,2.40
2018-04-08T11:00:04.847Z,2.73
2018-04-08T11:02:32.350Z,1.77
2018-04-08T11:05:00.013Z,2.00
2018-04-08T11:07:27.609Z,2.10
2018-04-08T11:09:55.277Z,2.17
2018-04-08T11:12:22.788Z,2.57
2018-04-08T11:14:50.301Z,2.00
2018-04-08T11:17:17.806Z,2.87
2018-04-08T11:19:45.312Z,3.10
2018-04-08T11:22:12.824Z,2.13
2018-04-08T11:24:40.422Z,2.77
2018-04-08T11:27:07.926Z,2.90
2018-04-08T11:29:35.435Z,2.30
2018-04-08T11:32:03.206Z,3.47
2018-04-08T11:34:30.876Z,2.13
2018-04-08T11:36:58.518Z,2.17
2018-04-08T11:39:26.029Z,2.50
2018-04-08T11:41:53.839Z,2.67
2018-04-08T11:44:21.369Z,2.10
2018-04-08T11:46:48.986Z,3.60
2018-04-08T11:49:16.926Z,2.70
2018-04-08T11:51:44.474Z,2.10
2018-04-08T11:54:11.979Z,2.33
2018-04-08T11:56:39.499Z,2.47
2018-04-08T11:59:07.053Z,2.20
2018-04-08T12:01:34.610Z,4.03
2018-04-08T12:04:02.151Z,2.47
2018-04-08T12:06:29.804Z,2.63
2018-04-08T12:08:57.312Z,2.30
2018-04-08T12:11:24.954Z,1.90
2018-04-08T12:13:52.489Z,2.10
2018-04-08T12:16:19.997Z,2.10
2018-04-08T12:18:48.167Z,2.30
2018-04-08T12:21:15.820Z,2.17
2018-04-08T12:23:43.462Z,1.90
2018-04-08T12:26:21.802Z,2.07
2018-04-08T12:28:49.303Z,2.40
2018-04-08T12:31:20.394Z,2.50
2018-04-08T12:33:50.561Z,2.03
2018-04-08T12:36:18.358Z,2.37
2018-04-08T12:38:45.881Z,2.03
2018-04-08T12:41:13.468Z,2.20
2018-04-08T12:43:40.988Z,3.60
2018-04-08T12:46:08.598Z,2.37
2018-04-08T12:48:36.107Z,2.43
2018-04-08T12:51:03.753Z,2.40
2018-04-08T12:53:31.382Z,3.23
2018-04-08T12:56:02.562Z,2.50
2018-04-08T12:58:30.369Z,1.87
2018-04-08T13:00:57.938Z,2.70
2018-04-08T13:03:25.504Z,2.83
2018-04-08T13:05:53.389Z,2.00
2018-04-08T13:08:21.434Z,4.30
2018-04-08T13:10:48.967Z,2.93
2018-04-08T13:13:16.501Z,2.10
2018-04-08T13:15:45.154Z,2.23
2018-04-08T13:18:13.130Z,2.33
2018-04-08T13:20:41.069Z,2.10
2018-04-08T13:23:08.840Z,3.30
2018-04-08T13:25:36.491Z,2.60
2018-04-08T13:28:04.056Z,2.60
2018-04-08T13:30:31.661Z,2.53
2018-04-08T13:32:59.164Z,2.23
2018-04-08T13:35:26.727Z,2.23
2018-04-08T13:37:54.426Z,2.07
2018-04-08T13:40:22.263Z,2.00
2018-04-08T13:42:50.182Z,2.13
2018-04-08T13:45:17.979Z,3.10
2018-04-08T13:47:45.666Z,2.10
2018-04-08T13:50:13.646Z,2.00
2018-04-08T13:52:41.374Z,2.00
2018-04-08T13:55:08.963Z,2.03
2018-04-08T13:57:36.890Z,2.33
2018-04-08T14:00:04.584Z,2.33
2018-04-08T14:02:32.196Z,2.03
2018-04-08T14:04:59.877Z,2.30
2018-04-08T14:07:32.454Z,2.33
2018-04-08T14:10:00.014Z,2.37
2018-04-08T14:12:27.589Z,2.57
2018-04-08T14:14:55.613Z,1.70
2018-04-08T14:17:23.307Z,2.00
2018-04-08T14:19:50.807Z,2.83
2018-04-08T14:22:18.362Z,2.23
2018-04-08T14:24:46.084Z,3.60
2018-04-08T14:27:13.605Z,2.60
2018-04-08T14:29:41.208Z,2.40
2018-04-08T14:32:14.599Z,2.33
2018-04-08T14:34:42.287Z,2.30
2018-04-08T14:37:09.794Z,2.57
2018-04-08T14:39:37.392Z,2.63
2018-04-08T14:42:05.446Z,3.07
2018-04-08T14:44:33.127Z,2.90
2018-04-08T14:47:00.770Z,3.17
2018-04-08T14:49:28.274Z,2.67
2018-04-08T14:51:55.851Z,3.53
2018-04-08T14:54:23.549Z,2.50
2018-04-08T14:56:52.033Z,3.17
2018-04-08T14:59:19.689Z,3.60
2018-04-08T15:01:47.550Z,3.80
2018-04-08T15:04:15.060Z,3.33
2018-04-08T15:06:42.563Z,3.07
2018-04-08T15:09:10.202Z,3.20
2018-04-08T15:11:37.788Z,4.03
2018-04-08T15:14:05.446Z,4.00
2018-04-08T15:16:33.011Z,3.50
2018-04-08T15:19:00.539Z,4.00
2018-04-08T15:21:28.226Z,4.47
2018-04-08T15:23:55.882Z,4.43
2018-04-08T15:26:23.385Z,4.90
2018-04-08T15:28:50.903Z,10.50
2018-04-08T15:31:18.445Z,12.30
2018-04-08T15:33:45.954Z,13.33
2018-04-08T15:36:13.574Z,7.40
2018-04-08T15:38:41.087Z,7.50
2018-04-08T15:41:08.690Z,7.70
2018-04-08T15:43:36.350Z,8.60
2018-04-08T15:46:04.034Z,9.27
2018-04-08T15:48:31.970Z,6.67
2018-04-08T15:50:59.786Z,6.20
2018-04-08T15:53:27.405Z,6.37
2018-04-08T15:55:55.076Z,15.10
2018-04-08T15:58:22.616Z,15.63
2018-04-08T16:00:50.178Z,7.20
2018-04-08T16:03:17.740Z,12.57
2018-04-08T16:05:45.343Z,12.93
2018-04-08T16:08:12.962Z,12.00
2018-04-08T16:10:40.650Z,9.73
2018-04-08T16:13:08.162Z,15.93
2018-04-08T16:15:35.786Z,9.80
2018-04-08T16:18:03.449Z,10.50
2018-04-08T16:20:31.124Z,10.10
2018-04-08T16:22:58.730Z,10.00
2018-04-08T16:25:26.238Z,10.30
2018-04-08T16:27:56.718Z,14.40
2018-04-08T16:30:24.236Z,14.23
2018-04-08T16:32:51.935Z,9.67
2018-04-08T16:35:19.452Z,10.67
2018-04-08T16:37:47.121Z,10.40
2018-04-08T16:40:14.726Z,12.67
2018-04-08T16:42:42.683Z,10.27
2018-04-08T16:45:10.209Z,13.73
2018-04-08T16:47:37.823Z,11.57
2018-04-08T16:50:05.346Z,11.93
2018-04-08T16:52:32.933Z,12.17
2018-04-08T16:55:00.614Z,12.63
2018-04-08T16:57:28.712Z,14.93
2018-04-08T16:59:56.378Z,14.87
2018-04-08T17:02:23.984Z,20.40
2018-04-08T17:04:51.698Z,11.87
2018-04-08T17:07:19.516Z,14.47
2018-04-08T17:09:47.409Z,15.87
2018-04-08T17:12:15.269Z,14.73
2018-04-08T17:14:47.661Z,17.30
2018-04-08T17:17:17.114Z,13.70
2018-04-08T17:19:44.642Z,14.67
2018-04-08T17:22:12.494Z,14.23
2018-04-08T17:24:40.345Z,15.33
2018-04-08T17:27:07.967Z,14.70
2018-04-08T17:29:35.677Z,15.00
2018-04-08T17:32:03.344Z,14.40
2018-04-08T17:34:31.223Z,16.27
2018-04-08T17:36:59.036Z,17.40
2018-04-08T17:39:26.694Z,12.80
2018-04-08T17:41:54.357Z,21.53
2018-04-08T17:44:22.909Z,27.70
2018-04-08T17:46:50.495Z,40.60
2018-04-08T17:49:18.553Z,25.37
2018-04-08T17:51:46.215Z,28.20
2018-04-08T17:54:13.870Z,24.50
2018-04-08T17:56:41.382Z,23.20
2018-04-08T17:59:08.983Z,22.30
2018-04-08T18:01:36.651Z,20.90
2018-04-08T18:04:04.314Z,22.90
2018-04-08T18:06:31.969Z,23.17
2018-04-08T18:08:59.632Z,21.17
2018-04-08T18:11:27.142Z,20.03
2018-04-08T18:13:54.759Z,19.60
2018-04-08T18:16:22.407Z,21.57
2018-04-08T18:18:50.082Z,23.33
2018-04-08T18:21:17.725Z,17.90
2018-04-08T18:23:45.394Z,21.20
2018-04-08T18:26:12.906Z,19.70
2018-04-08T18:28:40.513Z,21.13
2018-04-08T18:31:08.034Z,20.60
2018-04-08T18:33:35.728Z,15.87
2018-04-08T18:36:03.295Z,19.03
2018-04-08T18:38:31.006Z,18.90
2018-04-08T18:40:58.613Z,20.10
2018-04-08T18:43:26.139Z,22.23
2018-04-08T18:45:56.595Z,18.93
2018-04-08T18:48:24.106Z,19.03
2018-04-08T18:50:51.712Z,18.60
2018-04-08T18:53:19.224Z,18.90
2018-04-08T18:55:46.827Z,17.10
2018-04-08T18:58:14.506Z,18.20
2018-04-08T19:00:42.016Z,18.30
2018-04-08T19:03:14.728Z,17.20
2018-04-08T19:05:42.401Z,18.87
2018-04-08T19:08:10.311Z,18.10
2018-04-08T19:10:37.918Z,21.47
2018-04-08T19:13:05.426Z,16.83
2018-04-08T19:15:33.038Z,23.13
2018-04-08T19:18:03.522Z,20.70
2018-04-08T19:20:31.049Z,21.80
2018-04-08T19:22:58.699Z,18.07
2018-04-08T19:25:26.338Z,18.07
2018-04-08T19:27:54.011Z,20.70
2018-04-08T19:30:21.711Z,21.13
2018-04-08T19:32:49.526Z,19.40
2018-04-08T19:35:17.185Z,18.27
2018-04-08T19:37:44.692Z,19.77
2018-04-08T19:40:12.303Z,18.57
2018-04-08T19:42:39.811Z,20.17
2018-04-08T19:45:07.440Z,19.93
2018-04-08T19:47:35.131Z,19.63
2018-04-08T19:50:02.766Z,18.53
2018-04-08T19:52:30.276Z,22.37
2018-04-08T19:54:57.878Z,19.27
2018-04-08T19:57:25.393Z,18.27
2018-04-08T19:59:52.979Z,20.70
2018-04-08T20:02:20.637Z,22.90
2018-04-08T20:04:48.149Z,27.03
2018-04-08T20:07:15.754Z,22.33
2018-04-08T20:09:43.424Z,22.43
2018-04-08T20:12:11.336Z,18.77
2018-04-08T20:14:38.938Z,19.07
2018-04-08T20:17:08.662Z,20.20
2018-04-08T20:19:36.189Z,19.37
2018-04-08T20:22:03.781Z,23.27
2018-04-08T20:24:31.534Z,20.27
2018-04-08T20:26:59.146Z,21.33
2018-04-08T20:29:26.761Z,19.23
2018-04-08T20:31:54.276Z,20.00
2018-04-08T20:34:21.871Z,18.43
2018-04-08T20:36:49.555Z,19.13
2018-04-08T20:39:24.698Z,19.77
2018-04-08T20:41:52.510Z,19.30
2018-04-08T20:44:20.095Z,19.47
2018-04-08T20:46:47.614Z,19.07
2018-04-08T20:49:15.268Z,18.53
2018-04-08T20:51:42.868Z,22.40
2018-04-08T20:54:10.537Z,21.70
2018-04-08T20:56:38.045Z,18.67
2018-04-08T20:59:05.845Z,18.37
2018-04-08T21:01:33.357Z,20.23
2018-04-08T21:04:14.050Z,19.20
2018-04-08T21:06:41.567Z,18.20
2018-04-08T21:09:09.191Z,23.07
2018-04-08T21:11:36.721Z,24.40
2018-04-08T21:14:04.512Z,21.60
2018-04-08T21:16:32.175Z,17.83
2018-04-08T21:18:59.696Z,17.83
2018-04-08T21:21:27.290Z,18.87
2018-04-08T21:23:54.976Z,20.37
2018-04-08T21:26:22.607Z,19.43
2018-04-08T21:28:50.280Z,19.80
2018-04-08T21:31:17.934Z,19.17
2018-04-08T21:34:01.970Z,19.03
2018-04-08T21:36:29.486Z,18.43
2018-04-08T21:38:57.125Z,18.27
2018-04-08T21:41:24.808Z,20.70
2018-04-08T21:43:52.470Z,18.37
2018-04-08T21:46:20.081Z,18.77
2018-04-08T21:48:47.622Z,18.93
2018-04-08T21:51:15.214Z,21.00
2018-04-08T21:53:42.857Z,18.20
2018-04-08T21:56:10.366Z,19.53
2018-04-08T21:58:37.961Z,20.20
2018-04-08T22:01:05.633Z,21.23
2018-04-08T22:03:33.299Z,18.63
2018-04-08T22:06:01.365Z,16.63
2018-04-08T22:08:29.022Z,18.63
2018-04-08T22:10:56.697Z,17.90
2018-04-08T22:13:24.205Z,19.47
2018-04-08T22:15:51.811Z,17.90
2018-04-08T22:18:19.874Z,17.23
2018-04-08T22:20:47.539Z,17.60
2018-04-08T22:23:15.046Z,20.53
2018-04-08T22:25:42.671Z,18.27
2018-04-08T22:28:10.364Z,18.33
2018-04-08T22:30:37.975Z,20.30
2018-04-08T22:33:05.648Z,20.90
2018-04-08T22:35:33.336Z,18.57
2018-04-08T22:38:00.955Z,18.57
2018-04-08T22:40:28.624Z,15.97
2018-04-08T22:42:56.335Z,21.60
2018-04-08T22:45:26.805Z,23.17
2018-04-08T22:47:54.470Z,19.53
2018-04-08T22:50:22.127Z,15.33
2018-04-08T22:52:49.654Z,16.53
2018-04-08T22:55:20.781Z,17.00
2018-04-08T22:57:48.384Z,19.63
2018-04-08T23:00:21.013Z,15.97
2018-04-08T23:02:48.631Z,17.00
2018-04-08T23:05:16.150Z,16.60
2018-04-08T23:07:43.947Z,17.43
2018-04-08T23:10:11.606Z,15.70
2018-04-08T23:12:39.119Z,19.10
2018-04-08T23:15:06.723Z,15.93
2018-04-08T23:17:34.231Z,18.53
2018-04-08T23:20:01.846Z,21.03
2018-04-08T23:22:29.503Z,17.70
2018-04-08T23:24:57.174Z,16.40
2018-04-08T23:27:24.710Z,18.13
2018-04-08T23:29:52.294Z,21.07
2018-04-08T23:32:20.196Z,16.43
2018-04-08T23:34:47.803Z,15.70
2018-04-08T23:37:15.315Z,20.73
2018-04-08T23:39:42.922Z,21.30
2018-04-08T23:42:10.438Z,20.23
2018-04-08T23:44:38.245Z,15.97
2018-04-08T23:47:05.923Z,17.10
2018-04-08T23:49:33.562Z,18.70
2018-04-08T23:52:01.283Z,16.70
2018-04-08T23:54:28.898Z,20.43
2018-04-08T23:56:56.416Z,18.50
2018-04-08T23:59:24.015Z,17.57
